Terminal Aerodrome Forecast
Issued by NWS Rapid City, SD

Home | Current Version | Previous Version | Text Only | Print | Product List | Glossary On
Versions: 1 2 3 4 5 6 7 8 9 10 11 12 13 14 15 16 17 18 19 20 21 22
000
FTUS43 KUNR 281100
TAFRAP
TAF
KRAP 281120Z 2812/2912 35005KT P6SM FEW005 SCT020 BKN100
      TEMPO 2812/2815 BKN020
     FM281500 36007KT P6SM SCT100=

USA.gov is the U.S. government's official web portal to all federal, state and local government web resources and services.